Time;durP1;ratioP1;P1;durP2;ratioP2;P2;SDS_P1;SDS_P2;PMS_P1;PMS_P2;Temp;Humidity;BMP_temperature;BMP_pressure;BME280_temperature;BME280_humidity;BME280_pressure;Samples;Min_cycle;Max_cycle;Signal;HPM_P1;HPM_P2
2023/05/19 00:01:12;;;;;;;;;11.67;11.33;;;;;13.21;65.44;102305.69;5058360;28;45454;-72
2023/05/19 00:03:47;;;;;;;;;16.67;12.67;;;;;13.20;65.33;102301.28;5047341;28;45471;-72
2023/05/19 00:06:13;;;;;;;;;14.00;12.67;;;;;13.09;65.74;102290.19;5047640;28;45475;-72
2023/05/19 00:08:39;;;;;;;;;14.00;12.00;;;;;13.13;64.83;102300.63;5060591;28;45363;-72
2023/05/19 00:11:05;;;;;;;;;14.00;14.00;;;;;12.88;66.07;102260.72;5052952;28;45325;-71
2023/05/19 00:13:31;;;;;;;;;17.33;14.67;;;;;13.08;65.51;102299.91;5054266;28;45613;-72
2023/05/19 00:15:56;;;;;;;;;15.67;14.00;;;;;13.10;64.94;102307.84;5051521;28;45300;-72
2023/05/19 00:18:22;;;;;;;;;19.67;14.67;;;;;13.01;64.87;102304.53;5043759;28;45250;-72
2023/05/19 00:20:47;;;;;;;;;15.00;13.67;;;;;13.01;66.23;102304.53;5060972;28;45516;-72
2023/05/19 00:23:13;;;;;;;;;17.50;13.50;;;;;12.87;66.70;102276.69;5065283;28;45460;-72
2023/05/19 00:25:38;;;;;;;;;16.67;13.00;;;;;12.97;67.99;102299.38;5059486;28;45306;-72
2023/05/19 00:28:04;;;;;;;;;20.25;15.00;;;;;12.96;67.07;102309.13;5058437;28;45583;-72
2023/05/19 00:30:30;;;;;;;;;19.75;18.50;;;;;12.94;68.50;102303.00;5053103;28;45372;-71
2023/05/19 00:32:55;;;;;;;;;21.25;17.50;;;;;12.89;68.82;102301.44;5058368;28;45277;-72
2023/05/19 00:35:22;;;;;;;;;16.50;14.00;;;;;12.89;66.56;102299.63;5046550;28;45510;-72
2023/05/19 00:37:47;;;;;;;;;12.50;12.50;;;;;12.89;68.18;102304.09;5046689;28;45204;-72
2023/05/19 00:40:13;;;;;;;;;17.75;16.75;;;;;12.86;67.62;102296.22;5060235;28;45262;-71
2023/05/19 00:42:39;;;;;;;;;15.00;14.00;;;;;12.62;66.99;102249.22;5068304;28;45365;-72
2023/05/19 00:45:05;;;;;;;;;19.50;16.75;;;;;12.83;67.01;102288.31;5059109;28;46334;-72
2023/05/19 00:47:30;;;;;;;;;15.75;14.00;;;;;12.79;68.47;102279.63;5046508;28;45231;-71
2023/05/19 00:49:56;;;;;;;;;18.50;13.75;;;;;12.78;68.29;102283.19;5051952;28;45208;-72
2023/05/19 00:52:21;;;;;;;;;15.67;15.67;;;;;12.77;68.83;102280.56;5044430;28;45532;-72
2023/05/19 00:54:50;;;;;;;;;21.75;16.25;;;;;12.73;69.40;102277.16;5053247;28;45253;-72
2023/05/19 00:57:15;;;;;;;;;13.50;13.25;;;;;12.72;69.26;102285.19;5053339;28;45420;-72
2023/05/19 00:59:40;;;;;;;;;18.00;14.67;;;;;12.67;70.04;102279.13;5050044;28;45301;-72
2023/05/19 01:02:06;;;;;;;;;14.00;13.33;;;;;12.61;69.38;102277.53;5046512;28;45298;-72
2023/05/19 01:04:33;;;;;;;;;24.25;18.50;;;;;12.42;70.85;102253.38;5051477;28;46453;-72
2023/05/19 01:06:59;;;;;;;;;18.50;13.25;;;;;12.61;68.65;102277.53;5052834;28;45371;-72
2023/05/19 01:09:25;;;;;;;;;18.00;15.67;;;;;12.60;68.96;102277.63;5055494;28;45453;-71
2023/05/19 01:11:51;;;;;;;;;20.75;18.00;;;;;12.56;67.92;102283.94;5060293;28;45580;-71
2023/05/19 01:14:17;;;;;;;;;19.00;15.50;;;;;12.57;69.88;102280.34;5057717;28;46786;-72
2023/05/19 01:16:48;;;;;;;;;15.00;14.00;;;;;12.23;69.69;102228.34;5058692;28;45275;-71
2023/05/19 01:19:42;;;;;;;;;20.67;16.00;;;;;12.54;70.98;102274.22;5058661;28;45286;-72
2023/05/19 01:22:37;;;;;;;;;17.67;14.00;;;;;12.52;72.88;102275.19;5054505;28;45215;-72
2023/05/19 01:25:29;;;;;;;;;18.67;15.00;;;;;12.47;71.55;102274.47;5053803;28;45285;-72
2023/05/19 01:28:24;;;;;;;;;16.00;13.75;;;;;12.45;73.15;102271.00;5050824;28;45392;-72
2023/05/19 01:30:59;;;;;;;;;19.33;14.00;;;;;12.40;71.90;102272.94;5058380;28;45505;-72
2023/05/19 01:33:27;;;;;;;;;14.00;12.75;;;;;12.33;73.10;102261.66;5054671;28;45373;-72
2023/05/19 01:35:54;;;;;;;;;13.00;12.00;;;;;12.35;74.09;102272.19;5050340;28;45366;-72
2023/05/19 01:38:20;;;;;;;;;22.75;14.75;;;;;12.28;74.28;102260.91;5046026;28;45185;-73
2023/05/19 01:40:48;;;;;;;;;14.50;13.00;;;;;12.28;73.78;102263.56;5059462;28;45258;-72
2023/05/19 01:43:19;;;;;;;;;12.75;11.75;;;;;12.23;73.98;102254.00;5057334;28;45443;-72
2023/05/19 01:45:45;;;;;;;;;19.75;17.50;;;;;12.17;73.33;102259.50;5058220;28;46461;-72
2023/05/19 01:48:12;;;;;;;;;19.75;17.75;;;;;12.19;72.42;102265.63;5071677;28;45261;-73
2023/05/19 01:50:38;;;;;;;;;22.00;14.50;;;;;12.13;72.21;102255.22;5072527;27;45523;-72
2023/05/19 01:53:04;;;;;;;;;17.75;15.50;;;;;12.18;72.80;102262.09;5046100;28;45412;-72
2023/05/19 01:55:29;;;;;;;;;19.50;18.00;;;;;12.18;74.77;102261.22;5059039;28;45312;-72
2023/05/19 01:58:05;;;;;;;;;19.50;15.75;;;;;12.16;75.99;102269.25;5058299;28;45435;-72
2023/05/19 02:00:50;;;;;;;;;17.00;14.25;;;;;12.07;76.70;102263.34;5061067;28;45362;-72
2023/05/19 02:03:39;;;;;;;;;20.00;16.50;;;;;12.04;76.37;102264.31;5057841;28;45303;-73
2023/05/19 02:06:28;;;;;;;;;17.00;16.00;;;;;12.00;77.83;102260.00;5057348;28;47231;-72
2023/05/19 02:09:12;;;;;;;;;15.33;15.00;;;;;11.96;78.57;102266.31;5074952;28;45357;-73
2023/05/19 02:11:45;;;;;;;;;20.00;18.00;;;;;11.89;79.51;102270.06;5058688;28;45413;-72
2023/05/19 02:14:27;;;;;;;;;17.00;15.00;;;;;11.82;78.48;102269.38;5056355;28;45427;-73
2023/05/19 02:16:52;;;;;;;;;20.00;19.33;;;;;11.72;79.95;102256.41;5080645;27;47107;-73
2023/05/19 02:19:21;;;;;;;;;20.50;17.50;;;;;11.73;77.95;102268.75;5058457;28;45441;-73
2023/05/19 02:21:46;;;;;;;;;19.00;16.50;;;;;11.45;78.74;102224.44;5058692;28;45488;-72
2023/05/19 02:24:11;;;;;;;;;19.75;16.75;;;;;11.70;80.61;102268.81;5052509;28;45330;-72
2023/05/19 02:26:37;;;;;;;;;21.33;16.67;;;;;11.70;80.00;102268.81;5057604;28;48243;-73
2023/05/19 02:29:02;;;;;;;;;11.50;11.50;;;;;11.52;79.91;102234.91;5060723;28;45577;-72
2023/05/19 02:31:28;;;;;;;;;24.50;17.00;;;;;11.61;80.22;102259.34;5061952;28;45846;-72
2023/05/19 02:33:53;;;;;;;;;19.00;16.50;;;;;11.63;81.46;102265.47;5055969;28;45390;-73
2023/05/19 02:36:18;;;;;;;;;17.33;16.00;;;;;11.56;81.53;102261.25;5059758;28;46154;-72
2023/05/19 02:38:44;;;;;;;;;20.50;16.25;;;;;11.33;80.34;102232.75;5062079;28;45354;-73
2023/05/19 02:41:09;;;;;;;;;10.00;6.75;;;;;11.48;79.66;102255.31;5062159;28;45334;-72
2023/05/19 02:43:35;;;;;;;;;24.33;14.33;;;;;11.41;81.92;102246.66;5062275;28;45464;-72
2023/05/19 02:46:00;;;;;;;;;18.25;17.50;;;;;11.41;80.78;102248.44;5059888;28;45719;-72
2023/05/19 02:48:25;;;;;;;;;20.75;18.00;;;;;11.46;78.76;102263.28;5061255;28;45220;-72
2023/05/19 02:50:51;;;;;;;;;16.00;15.25;;;;;11.43;79.82;102249.25;5060125;28;45957;-72
2023/05/19 02:53:16;;;;;;;;;19.50;16.50;;;;;11.45;78.39;102250.09;5057192;28;45563;-72
2023/05/19 02:55:41;;;;;;;;;21.75;16.00;;;;;11.42;78.54;102248.38;5056400;28;46067;-72
2023/05/19 02:58:06;;;;;;;;;16.50;15.25;;;;;11.33;80.38;102232.75;5054002;28;45400;-72
2023/05/19 03:00:32;;;;;;;;;19.50;16.75;;;;;11.38;80.72;102237.94;5054971;28;45298;-73
2023/05/19 03:03:01;;;;;;;;;18.25;18.00;;;;;11.37;79.76;102250.31;5067535;28;45251;-72
2023/05/19 03:05:27;;;;;;;;;16.50;16.00;;;;;11.35;81.28;102241.50;5052701;27;45404;-72
2023/05/19 03:07:52;;;;;;;;;21.00;14.00;;;;;11.31;81.73;102253.13;5054449;28;45448;-72
2023/05/19 03:10:17;;;;;;;;;22.00;18.00;;;;;11.25;82.97;102242.69;5056040;28;45304;-73
2023/05/19 03:12:43;;;;;;;;;19.25;18.25;;;;;11.27;84.38;102251.47;5060508;28;45490;-73
2023/05/19 03:15:09;;;;;;;;;21.75;20.00;;;;;11.26;84.53;102249.72;5060293;28;45266;-72
2023/05/19 03:17:35;;;;;;;;;19.25;19.25;;;;;11.25;84.00;102249.78;5048222;28;45283;-72
2023/05/19 03:20:00;;;;;;;;;22.00;20.50;;;;;11.22;83.81;102255.16;5057760;28;45279;-72
2023/05/19 03:22:26;;;;;;;;;29.75;21.75;;;;;11.13;83.66;102250.94;5061547;28;45380;-73
2023/05/19 03:24:53;;;;;;;;;26.50;19.50;;;;;11.12;83.06;102253.66;5048471;28;46854;-73
2023/05/19 03:27:18;;;;;;;;;19.25;18.00;;;;;11.10;84.47;102251.03;5059745;28;45235;-72
2023/05/19 03:29:43;;;;;;;;;23.00;19.75;;;;;10.92;84.65;102225.06;5059995;28;45326;-73
2023/05/19 03:32:09;;;;;;;;;16.00;14.00;;;;;10.82;84.21;102211.19;5049362;28;45397;-73
2023/05/19 03:34:34;;;;;;;;;19.25;17.75;;;;;11.04;84.33;102252.97;5051493;28;45340;-72
2023/05/19 03:37:00;;;;;;;;;27.00;18.50;;;;;11.04;85.65;102263.56;5060987;28;45231;-72
2023/05/19 03:39:25;;;;;;;;;23.75;19.50;;;;;11.04;85.04;102250.31;5061678;28;45380;-72
2023/05/19 03:41:50;;;;;;;;;20.00;18.50;;;;;11.02;83.21;102252.16;5057762;27;45226;-72
2023/05/19 03:44:16;;;;;;;;;23.50;18.25;;;;;10.74;84.20;102206.97;5057813;28;45977;-73
2023/05/19 03:46:41;;;;;;;;;24.50;21.00;;;;;10.98;85.34;102257.53;5057771;28;45424;-72
2023/05/19 03:49:06;;;;;;;;;24.00;22.25;;;;;10.95;84.04;102262.03;5061112;28;45445;-73
2023/05/19 03:51:33;;;;;;;;;20.75;19.00;;;;;10.93;86.33;102262.06;5060561;28;45379;-72
2023/05/19 03:53:59;;;;;;;;;22.00;19.25;;;;;10.95;87.39;102251.44;5059760;28;45358;-73
2023/05/19 03:56:26;;;;;;;;;20.25;19.75;;;;;10.93;86.36;102248.81;5060899;28;45278;-72
2023/05/19 03:58:53;;;;;;;;;20.00;17.50;;;;;10.91;85.86;102249.78;5046317;28;45306;-73
2023/05/19 04:01:19;;;;;;;;;23.75;17.00;;;;;10.91;88.83;102257.72;5077827;27;45433;-72
2023/05/19 04:03:44;;;;;;;;;24.00;19.00;;;;;10.88;85.50;102263.09;5071113;28;45250;-72
2023/05/19 04:06:10;;;;;;;;;22.50;22.00;;;;;10.85;87.58;102257.88;5047993;28;45258;-72
2023/05/19 04:08:35;;;;;;;;;25.25;20.75;;;;;10.78;84.28;102249.22;5047349;28;45247;-72
2023/05/19 04:11:00;;;;;;;;;20.50;17.00;;;;;10.54;86.05;102218.06;5060925;28;45185;-72
2023/05/19 04:13:26;;;;;;;;;23.25;20.50;;;;;10.58;87.33;102217.09;5047323;28;45845;-73
2023/05/19 04:15:51;;;;;;;;;25.50;23.75;;;;;10.71;87.46;102252.03;5056033;28;46910;-73
2023/05/19 04:18:17;;;;;;;;;21.25;17.00;;;;;10.76;86.53;102264.28;5059295;28;45406;-73
2023/05/19 04:20:42;;;;;;;;;29.00;20.75;;;;;10.73;87.09;102274.06;5048070;28;45370;-74
2023/05/19 04:23:07;;;;;;;;;28.00;22.50;;;;;10.72;89.03;102265.25;5047143;28;45568;-72
2023/05/19 04:25:35;;;;;;;;;23.50;21.25;;;;;10.44;89.86;102214.75;5070163;28;46781;-73
2023/05/19 04:28:01;;;;;;;;;30.25;22.25;;;;;10.37;89.22;102214.97;5047317;28;45292;-72
2023/05/19 04:30:28;;;;;;;;;26.25;22.75;;;;;10.66;89.99;102261.88;5053873;28;45381;-72
2023/05/19 04:32:53;;;;;;;;;31.00;24.25;;;;;10.59;90.64;102253.22;5054540;28;45892;-72
2023/05/19 04:35:19;;;;;;;;;19.75;19.25;;;;;10.64;90.44;102261.91;5057703;28;45284;-72
2023/05/19 04:37:45;;;;;;;;;23.50;18.00;;;;;10.61;90.02;102259.34;5058282;28;45562;-72
2023/05/19 04:40:11;;;;;;;;;24.00;21.25;;;;;10.60;89.63;102268.16;5049145;28;45460;-73
2023/05/19 04:42:40;;;;;;;;;23.00;21.00;;;;;10.55;88.20;102262.13;5058202;28;45496;-72
2023/05/19 04:45:07;;;;;;;;;22.50;19.25;;;;;10.54;91.86;102262.16;5057624;28;45578;-73
2023/05/19 04:47:35;;;;;;;;;28.75;23.75;;;;;10.58;89.57;102264.69;5046314;28;45693;-73
2023/05/19 04:50:01;;;;;;;;;27.00;22.75;;;;;10.45;88.78;102244.72;5050414;28;45355;-72
2023/05/19 04:52:27;;;;;;;;;27.50;19.25;;;;;10.58;88.18;102261.19;5043324;28;45999;-72
2023/05/19 04:54:53;;;;;;;;;25.50;19.75;;;;;10.41;87.62;102230.72;5056170;28;45346;-73
2023/05/19 04:57:18;;;;;;;;;26.25;17.50;;;;;10.69;89.21;102281.19;5039792;28;45335;-72
2023/05/19 04:59:43;;;;;;;;;23.00;21.50;;;;;10.75;89.36;102285.47;5047133;28;45325;-72
2023/05/19 05:02:09;;;;;;;;;25.25;22.50;;;;;10.72;88.71;102283.78;5057854;28;46123;-72
2023/05/19 05:04:35;;;;;;;;;26.75;20.00;;;;;10.67;89.57;102259.19;5057998;28;45464;-72
2023/05/19 05:07:00;;;;;;;;;23.25;22.75;;;;;10.64;89.94;102253.09;5045778;28;45397;-72
2023/05/19 05:09:26;;;;;;;;;27.75;23.00;;;;;10.89;88.25;102289.53;5047839;28;45280;-72
2023/05/19 05:11:51;;;;;;;;;22.25;21.25;;;;;10.93;89.32;102293.81;5046477;28;46216;-72
2023/05/19 05:14:17;;;;;;;;;26.75;22.75;;;;;10.95;88.07;102291.16;5050461;28;45508;-72
2023/05/19 05:16:43;;;;;;;;;27.50;21.75;;;;;10.98;86.45;102291.94;5052504;28;45346;-72
2023/05/19 05:19:08;;;;;;;;;26.25;23.25;;;;;11.03;86.24;102286.50;5051520;28;45504;-72
2023/05/19 05:21:34;;;;;;;;;28.50;24.00;;;;;11.11;86.13;102286.31;5052458;28;45655;-73
2023/05/19 05:24:00;;;;;;;;;27.50;23.00;;;;;11.12;86.12;102293.38;5055192;28;45432;-72
2023/05/19 05:26:30;;;;;;;;;25.25;23.50;;;;;11.24;86.27;102301.88;5059579;28;45461;-72
2023/05/19 05:28:55;;;;;;;;;20.00;17.75;;;;;11.28;84.74;102295.59;5059819;28;45310;-73
2023/05/19 05:31:21;;;;;;;;;21.75;19.50;;;;;11.36;84.76;102298.00;5045786;28;45339;-73
2023/05/19 05:33:46;;;;;;;;;23.00;20.50;;;;;11.44;86.38;102304.00;5050283;28;45297;-73
2023/05/19 05:36:12;;;;;;;;;23.75;19.50;;;;;11.49;86.86;102294.13;5055149;28;45624;-73
2023/05/19 05:38:37;;;;;;;;;27.50;23.75;;;;;11.55;83.71;102293.94;5048612;28;45438;-73
2023/05/19 05:41:03;;;;;;;;;31.25;21.50;;;;;11.49;81.13;102287.03;5054765;28;45361;-73
2023/05/19 05:43:29;;;;;;;;;32.75;24.75;;;;;11.60;80.86;102302.66;5050230;28;45358;-72
2023/05/19 05:45:55;;;;;;;;;27.25;23.50;;;;;11.70;79.26;102303.28;5058579;28;45299;-72
2023/05/19 05:48:21;;;;;;;;;21.75;20.00;;;;;11.78;80.31;102303.97;5059626;28;45400;-72
2023/05/19 05:50:47;;;;;;;;;25.50;21.50;;;;;11.85;77.90;102302.88;5054519;28;48212;-72
2023/05/19 05:53:18;;;;;;;;;23.50;20.50;;;;;11.92;80.93;102307.09;5049104;28;45357;-72
2023/05/19 05:55:45;;;;;;;;;22.50;20.75;;;;;12.01;77.21;102315.63;5055943;28;45556;-72
2023/05/19 05:58:10;;;;;;;;;24.25;21.25;;;;;12.01;74.85;102317.41;5049823;28;45465;-73
2023/05/19 06:00:36;;;;;;;;;19.25;17.25;;;;;12.03;77.42;102315.59;5048729;28;45972;-73
2023/05/19 06:03:02;;;;;;;;;28.00;25.25;;;;;12.15;77.73;102322.31;5062850;28;45286;-73
2023/05/19 06:05:27;;;;;;;;;25.75;20.25;;;;;12.20;79.11;102309.81;5065051;28;45653;-72
2023/05/19 06:07:52;;;;;;;;;27.25;23.50;;;;;12.34;76.79;102318.19;5054432;28;45397;-73
2023/05/19 06:10:18;;;;;;;;;26.50;22.00;;;;;12.27;73.47;102298.09;5061162;28;46015;-72
2023/05/19 06:12:43;;;;;;;;;19.75;15.25;;;;;12.42;73.46;102316.19;5054173;28;45285;-72
2023/05/19 06:15:09;;;;;;;;;20.50;18.25;;;;;12.32;73.27;102285.56;5057272;28;45314;-72
2023/05/19 06:17:34;;;;;;;;;25.00;22.00;;;;;12.59;77.08;102311.25;5058521;28;45445;-73
2023/05/19 06:20:01;;;;;;;;;25.75;20.00;;;;;12.67;72.63;102301.25;5050961;28;45282;-72
2023/05/19 06:22:27;;;;;;;;;23.00;20.00;;;;;12.75;71.71;102312.50;5061793;28;45459;-72
2023/05/19 06:24:52;;;;;;;;;23.00;20.00;;;;;12.77;73.54;102300.03;5048901;28;45350;-72
2023/05/19 06:27:18;;;;;;;;;20.75;20.00;;;;;12.80;73.03;102284.00;5053175;28;45286;-72
2023/05/19 06:29:43;;;;;;;;;24.75;19.25;;;;;12.93;72.20;102297.72;5055323;28;46074;-72
2023/05/19 06:32:08;;;;;;;;;24.75;20.00;;;;;13.08;70.61;102310.53;5049975;28;45400;-73
2023/05/19 06:34:34;;;;;;;;;14.00;13.00;;;;;13.14;69.87;102298.84;5064261;28;45205;-72
2023/05/19 06:37:01;;;;;;;;;23.25;19.25;;;;;13.20;69.82;102301.28;5053051;28;45400;-72
2023/05/19 06:39:26;;;;;;;;;19.75;18.25;;;;;13.32;67.86;102308.81;5060000;28;46169;-73
2023/05/19 06:41:52;;;;;;;;;18.75;16.25;;;;;13.36;68.65;102300.72;5051741;28;45420;-72
2023/05/19 06:44:17;;;;;;;;;17.50;14.50;;;;;13.48;67.33;102300.28;5059679;28;45915;-72
2023/05/19 06:46:43;;;;;;;;;24.50;17.25;;;;;13.54;68.52;102296.56;5057421;28;45433;-72
2023/05/19 06:49:09;;;;;;;;;21.50;16.50;;;;;13.67;67.52;102302.28;5060814;28;47391;-72
2023/05/19 06:51:34;;;;;;;;;17.25;14.25;;;;;13.76;67.35;102296.63;5063354;28;45443;-73
2023/05/19 06:54:00;;;;;;;;;18.25;16.50;;;;;13.95;67.57;102306.53;5062797;28;45337;-73
2023/05/19 06:56:25;;;;;;;;;16.00;14.25;;;;;14.03;66.30;102309.78;5063167;28;45637;-73
2023/05/19 06:58:50;;;;;;;;;15.50;13.25;;;;;13.98;66.53;102270.97;5048038;28;46895;-72
2023/05/19 07:01:16;;;;;;;;;22.33;18.00;;;;;14.06;64.96;102261.78;5058455;28;45399;-72
2023/05/19 07:03:41;;;;;;;;;21.75;17.00;;;;;14.39;64.27;102296.03;5064630;28;45386;-72
2023/05/19 07:06:06;;;;;;;;;20.50;17.75;;;;;14.46;64.27;102297.53;5062927;28;45297;-72
2023/05/19 07:08:33;;;;;;;;;24.50;19.00;;;;;14.48;62.29;102296.53;5047023;28;45352;-73
2023/05/19 07:10:58;;;;;;;;;21.67;17.00;;;;;14.54;63.94;102296.28;5048121;28;45579;-73
2023/05/19 07:13:23;;;;;;;;;16.75;16.75;;;;;14.58;62.52;102283.72;5061136;28;46210;-72
2023/05/19 07:15:51;;;;;;;;;22.00;19.00;;;;;14.59;62.15;102288.13;5056450;28;45228;-72
2023/05/19 07:18:16;;;;;;;;;21.25;16.00;;;;;14.59;61.57;102283.66;5049070;28;45968;-72
2023/05/19 07:20:42;;;;;;;;;17.75;16.25;;;;;14.64;61.64;102280.81;5049796;28;45310;-72
2023/05/19 07:23:07;;;;;;;;;22.50;16.25;;;;;14.82;62.84;102290.69;5065687;28;45606;-73
2023/05/19 07:25:32;;;;;;;;;17.25;10.50;;;;;14.91;61.76;102279.69;5048119;28;45393;-73
2023/05/19 07:27:58;;;;;;;;;19.75;18.50;;;;;15.12;61.74;102293.88;5048010;28;47325;-73
2023/05/19 07:30:27;;;;;;;;;17.00;14.33;;;;;15.22;60.38;102284.56;5054078;28;45280;-73
2023/05/19 07:32:52;;;;;;;;;17.25;16.75;;;;;15.37;61.78;102289.25;5054752;28;45332;-73
2023/05/19 07:35:19;;;;;;;;;17.67;13.33;;;;;15.46;61.07;102278.19;5061353;28;45778;-72
2023/05/19 07:37:44;;;;;;;;;16.67;16.67;;;;;15.39;59.96;102258.06;5060981;28;45330;-73
2023/05/19 07:40:10;;;;;;;;;21.00;15.67;;;;;15.68;60.17;102278.13;5051347;28;45276;-73
2023/05/19 07:42:35;;;;;;;;;16.33;16.00;;;;;15.77;58.77;102287.53;5052121;28;45425;-73
2023/05/19 07:45:02;;;;;;;;;22.00;18.25;;;;;15.87;59.07;102295.03;5063920;28;45450;-73
2023/05/19 07:47:28;;;;;;;;;17.00;14.67;;;;;16.00;58.97;102296.19;5067005;27;45481;-73
2023/05/19 07:49:53;;;;;;;;;19.00;17.00;;;;;16.09;58.47;102277.13;5060199;28;45305;-73
2023/05/19 07:52:19;;;;;;;;;16.33;14.33;;;;;16.26;58.21;102286.13;5053319;28;45444;-73
2023/05/19 07:54:44;;;;;;;;;19.00;16.33;;;;;16.39;60.07;102287.28;5058841;28;45415;-73
2023/05/19 07:57:10;;;;;;;;;20.00;16.67;;;;;16.47;58.86;102277.09;5051674;28;47334;-73
2023/05/19 07:59:35;;;;;;;;;20.67;16.33;;;;;16.57;57.86;102283.75;5056700;28;45359;-73
2023/05/19 08:02:01;;;;;;;;;19.67;16.67;;;;;16.62;59.60;102266.56;5061838;28;45731;-73
2023/05/19 08:04:26;;;;;;;;;17.67;16.00;;;;;16.68;58.19;102252.06;5068349;28;45440;-73
2023/05/19 08:06:52;;;;;;;;;20.00;17.00;;;;;16.85;57.38;102264.56;5072878;28;46032;-73
2023/05/19 08:09:18;;;;;;;;;15.67;13.00;;;;;16.99;56.65;102270.06;5049066;28;45246;-73
2023/05/19 08:11:45;;;;;;;;;14.00;12.67;;;;;16.98;56.37;102255.00;5059273;28;45636;-73
2023/05/19 08:14:11;;;;;;;;;20.33;17.67;;;;;17.10;56.26;102251.69;5062308;28;45352;-73
2023/05/19 08:16:36;;;;;;;;;20.33;17.67;;;;;17.24;53.96;102267.91;5047520;28;46340;-73
2023/05/19 08:19:04;;;;;;;;;16.33;16.00;;;;;17.38;54.80;102264.47;5059193;28;45243;-73
2023/05/19 08:21:33;;;;;;;;;20.67;16.33;;;;;17.54;55.94;102262.72;5061924;28;45374;-72
2023/05/19 08:24:01;;;;;;;;;20.00;17.00;;;;;17.55;54.08;102260.03;5060509;28;45471;-73
2023/05/19 08:26:27;;;;;;;;;14.00;13.67;;;;;17.64;53.62;102254.16;5055888;28;46308;-73
2023/05/19 08:28:53;;;;;;;;;19.00;13.67;;;;;17.77;55.42;102242.81;5047723;28;45714;-73
2023/05/19 08:31:18;;;;;;;;;19.00;15.33;;;;;18.04;53.71;102255.56;5055435;28;45255;-72
2023/05/19 08:33:44;;;;;;;;;16.33;13.00;;;;;18.21;55.13;102252.81;5060411;28;45270;-73
2023/05/19 08:36:10;;;;;;;;;9.67;8.67;;;;;18.20;51.87;102232.31;5053832;28;45592;-73
2023/05/19 08:38:35;;;;;;;;;16.33;13.67;;;;;18.30;51.19;102245.19;5048990;28;45326;-73
2023/05/19 08:41:01;;;;;;;;;14.00;13.00;;;;;18.27;51.90;102243.56;5057923;28;45853;-73
2023/05/19 08:43:26;;;;;;;;;13.67;13.33;;;;;18.10;52.18;102206.13;5055610;28;45540;-73
2023/05/19 08:45:52;;;;;;;;;12.00;10.33;;;;;18.41;52.41;102234.75;5050873;28;46379;-72
2023/05/19 08:48:18;;;;;;;;;11.00;10.33;;;;;18.53;51.84;102234.94;5051625;28;45251;-72
2023/05/19 08:50:55;;;;;;;;;12.00;11.00;;;;;18.42;50.80;102201.66;5055074;28;45901;-72
2023/05/19 08:53:33;;;;;;;;;8.33;8.33;;;;;18.77;52.62;102237.16;5053067;28;45390;-72
2023/05/19 08:56:13;;;;;;;;;12.00;9.67;;;;;18.99;52.45;102224.19;5047602;28;46098;-72
2023/05/19 08:58:40;;;;;;;;;11.00;9.33;;;;;19.18;52.81;102227.50;5046935;28;45565;-72
2023/05/19 09:01:06;;;;;;;;;13.00;11.00;;;;;19.30;51.09;102223.22;5059395;28;45391;-72
2023/05/19 09:03:36;;;;;;;;;12.33;11.33;;;;;19.37;49.34;102221.91;5063064;28;45282;-72
2023/05/19 09:06:11;;;;;;;;;11.67;9.67;;;;;19.41;50.23;102221.63;5046444;28;46067;-72
2023/05/19 09:08:37;;;;;;;;;14.00;12.67;;;;;19.51;48.92;102211.19;5059872;28;45245;-72
2023/05/19 09:11:02;;;;;;;;;12.67;12.67;;;;;19.50;48.28;102198.75;5059800;28;45267;-72
2023/05/19 09:13:27;;;;;;;;;14.67;13.00;;;;;19.73;47.54;102206.22;5051057;28;45285;-72
2023/05/19 09:15:55;;;;;;;;;11.33;10.00;;;;;19.86;49.92;102215.19;5066686;28;47096;-72
2023/05/19 09:18:20;;;;;;;;;13.33;11.33;;;;;19.84;48.68;102213.56;5050144;28;45302;-72
2023/05/19 09:20:46;;;;;;;;;7.67;7.67;;;;;19.88;50.02;102197.19;5057661;28;45355;-72
2023/05/19 09:23:16;;;;;;;;;9.67;9.67;;;;;19.92;47.94;102209.47;5047503;28;45258;-72
2023/05/19 09:25:49;;;;;;;;;13.33;9.67;;;;;19.93;49.23;102188.81;5047751;28;46146;-72
2023/05/19 09:28:22;;;;;;;;;11.67;11.67;;;;;20.01;49.40;102184.69;5054943;28;46878;-72
2023/05/19 09:30:47;;;;;;;;;9.67;9.67;;;;;20.29;50.36;102188.31;5053842;28;45484;-72
2023/05/19 09:33:18;;;;;;;;;11.00;10.00;;;;;20.31;49.12;102191.75;5057151;28;45814;-72
2023/05/19 09:35:47;;;;;;;;;13.67;11.67;;;;;20.40;48.65;102183.06;5045092;28;46071;-72
2023/05/19 09:38:17;;;;;;;;;11.00;10.00;;;;;20.42;47.45;102159.66;5054340;28;45778;-72
2023/05/19 09:40:42;;;;;;;;;11.00;11.00;;;;;20.62;46.34;102192.28;5049885;28;45413;-72
2023/05/19 09:43:08;;;;;;;;;9.67;9.00;;;;;20.60;48.01;102191.53;5057363;28;45382;-72
2023/05/19 09:45:34;;;;;;;;;13.00;11.67;;;;;20.72;46.51;102192.53;5061733;28;46165;-71
2023/05/19 09:48:03;;;;;;;;;10.67;9.67;;;;;20.78;47.50;102190.28;5059672;28;45347;-72
2023/05/19 09:50:29;;;;;;;;;13.67;10.00;;;;;20.86;45.68;102184.41;5055465;28;45318;-72
2023/05/19 09:52:55;;;;;;;;;9.00;8.67;;;;;20.96;47.57;102179.25;5048774;28;45750;-72
2023/05/19 09:55:25;;;;;;;;;8.33;7.67;;;;;21.18;46.33;102185.75;5060732;28;45380;-72
2023/05/19 09:57:51;;;;;;;;;10.67;10.67;;;;;21.32;46.93;102192.00;5059224;28;45446;-73
2023/05/19 10:00:18;;;;;;;;;12.67;9.00;;;;;21.33;46.71;102182.97;5050845;28;45432;-73
2023/05/19 10:02:46;;;;;;;;;10.33;9.33;;;;;21.41;46.00;102181.44;5056232;28;46062;-72
2023/05/19 10:05:18;;;;;;;;;7.33;7.33;;;;;21.48;45.90;102177.34;5066116;28;45437;-72
2023/05/19 10:07:50;;;;;;;;;8.00;8.00;;;;;21.56;43.59;102193.81;5063807;28;45389;-72
2023/05/19 10:10:16;;;;;;;;;9.33;8.33;;;;;21.47;44.07;102180.16;5065538;28;45515;-72
2023/05/19 10:12:42;;;;;;;;;9.67;9.00;;;;;21.36;45.34;102156.69;5057967;28;46555;-72
2023/05/19 10:15:12;;;;;;;;;11.33;11.33;;;;;21.60;45.89;102175.59;5045858;28;45270;-72
2023/05/19 10:17:39;;;;;;;;;12.67;10.00;;;;;21.58;45.89;102180.25;5061096;28;45349;-72
2023/05/19 10:20:09;;;;;;;;;13.33;11.67;;;;;21.62;45.61;102182.63;5062521;28;45653;-72
2023/05/19 10:22:36;;;;;;;;;11.67;11.67;;;;;21.76;44.32;102177.09;5064475;28;45451;-73
2023/05/19 10:25:03;;;;;;;;;12.67;10.67;;;;;21.82;44.82;102179.34;5060616;27;46229;-72
2023/05/19 10:27:30;;;;;;;;;10.33;8.67;;;;;21.87;44.96;102170.94;5063365;28;45518;-73
2023/05/19 10:30:00;;;;;;;;;7.33;6.67;;;;;21.83;43.89;102170.28;5059661;28;45492;-72
2023/05/19 10:32:29;;;;;;;;;14.67;11.00;;;;;21.83;44.35;102164.03;5044787;28;45299;-72
2023/05/19 10:35:14;;;;;;;;;11.33;9.67;;;;;21.95;44.17;102171.28;5065433;28;46647;-72
2023/05/19 10:37:50;;;;;;;;;9.00;9.00;;;;;21.97;44.07;102169.31;5067709;28;45371;-72
2023/05/19 10:40:51;;;;;;;;;7.67;7.33;;;;;22.10;44.10;102172.84;5052259;27;45401;-72
2023/05/19 10:43:35;;;;;;;;;12.33;9.00;;;;;22.31;42.71;102165.00;5060326;28;45349;-72
2023/05/19 10:46:00;;;;;;;;;13.00;8.00;;;;;22.32;44.36;102170.25;5069420;28;46036;-72
2023/05/19 10:48:31;;;;;;;;;10.00;9.67;;;;;22.30;43.18;102168.66;5067620;28;45343;-72
2023/05/19 10:50:57;;;;;;;;;11.67;10.67;;;;;22.30;42.74;102153.34;5042244;28;45429;-72
2023/05/19 10:53:33;;;;;;;;;8.33;8.33;;;;;22.07;43.54;102154.22;5054082;28;45416;-72
2023/05/19 10:56:05;;;;;;;;;10.33;8.00;;;;;22.13;45.04;102152.88;5048826;28;46222;-72
2023/05/19 10:58:43;;;;;;;;;9.00;8.00;;;;;22.09;43.17;102162.16;5069733;28;45345;-72
2023/05/19 11:01:14;;;;;;;;;9.00;8.33;;;;;21.75;43.99;102137.69;5064470;28;45437;-72
2023/05/19 11:03:53;;;;;;;;;11.67;11.33;;;;;22.03;44.50;102150.00;5057359;28;45323;-72
2023/05/19 11:06:26;;;;;;;;;10.00;10.00;;;;;22.19;43.99;102137.13;5057330;27;46977;-72
2023/05/19 11:08:56;;;;;;;;;11.67;8.00;;;;;22.29;43.07;102148.94;5058364;28;45279;-72
2023/05/19 11:11:22;;;;;;;;;9.67;9.67;;;;;22.45;43.38;102147.75;5055569;28;45445;-72
2023/05/19 11:13:50;;;;;;;;;12.00;10.00;;;;;22.64;41.57;102148.13;5060809;28;45608;-72